Time;durP1;ratioP1;P1;durP2;ratioP2;P2;SDS_P1;SDS_P2;PMS_P1;PMS_P2;Temp;Humidity;BMP_temperature;BMP_pressure;BME280_temperature;BME280_humidity;BME280_pressure;Samples;Min_cycle;Max_cycle;Signal;HPM_P1;HPM_P2
2021/08/15 00:00:19;;;;;;;28.43;25.70;;;14.90;99.90;;;;;;5057385;28;20460;-72
2021/08/15 00:02:46;;;;;;;31.17;26.90;;;15.00;99.90;;;;;;5055182;28;20452;-72
2021/08/15 00:05:14;;;;;;;28.17;25.60;;;14.90;99.90;;;;;;5056457;28;20868;-72
2021/08/15 00:07:43;;;;;;;29.30;26.17;;;14.90;99.90;;;;;;5053690;28;20452;-71
2021/08/15 00:10:11;;;;;;;28.13;25.80;;;14.80;99.90;;;;;;5049875;28;20985;-72
2021/08/15 00:12:39;;;;;;;29.40;26.47;;;14.70;99.90;;;;;;5053702;28;20474;-71
2021/08/15 00:15:08;;;;;;;29.17;26.57;;;14.70;99.90;;;;;;5057368;28;20452;-72
2021/08/15 00:17:36;;;;;;;30.17;26.97;;;14.70;99.90;;;;;;5015680;28;20902;-71
2021/08/15 00:20:04;;;;;;;31.93;27.20;;;14.80;99.90;;;;;;5018854;28;20469;-71
2021/08/15 00:22:32;;;;;;;31.53;26.40;;;14.90;99.90;;;;;;5015697;28;20539;-69
2021/08/15 00:25:01;;;;;;;30.47;26.00;;;15.00;99.90;;;;;;5015049;28;20459;-71
2021/08/15 00:27:30;;;;;;;30.17;26.47;;;15.10;99.90;;;;;;5017932;28;20461;-71
2021/08/15 00:29:58;;;;;;;27.47;24.87;;;15.10;99.90;;;;;;5016761;28;20807;-70
2021/08/15 00:32:25;;;;;;;27.60;25.00;;;15.10;99.90;;;;;;5018529;28;20952;-71
2021/08/15 00:34:52;;;;;;;33.77;26.10;;;15.00;99.90;;;;;;5019602;28;20462;-72
2021/08/15 00:37:20;;;;;;;29.23;26.27;;;15.00;99.90;;;;;;5016973;28;20552;-70
2021/08/15 00:39:48;;;;;;;26.50;24.17;;;15.00;99.90;;;;;;5014292;28;20471;-69
2021/08/15 00:42:18;;;;;;;28.80;25.83;;;15.00;99.90;;;;;;5015658;28;20544;-70
2021/08/15 00:44:46;;;;;;;35.03;26.10;;;15.00;99.90;;;;;;5018179;28;20456;-72
2021/08/15 00:47:13;;;;;;;28.43;25.50;;;14.90;99.90;;;;;;5018625;28;20461;-73
2021/08/15 00:49:41;;;;;;;33.60;26.57;;;15.00;99.90;;;;;;5013678;28;20998;-71
2021/08/15 00:52:08;;;;;;;28.37;25.53;;;15.00;99.90;;;;;;5018565;28;20488;-71
2021/08/15 00:54:37;;;;;;;28.47;25.50;;;15.00;99.90;;;;;;5013404;28;20457;-73
2021/08/15 00:57:06;;;;;;;26.80;23.93;;;14.90;99.90;;;;;;5011938;28;20850;-71
2021/08/15 00:59:38;;;;;;;33.10;23.83;;;14.90;99.90;;;;;;5015958;28;20469;-70
2021/08/15 01:02:06;;;;;;;31.50;25.00;;;15.00;99.90;;;;;;5011386;28;20476;-71
2021/08/15 01:04:34;;;;;;;29.37;25.37;;;15.00;99.90;;;;;;5018107;28;20460;-71
2021/08/15 01:07:02;;;;;;;26.90;23.10;;;15.10;99.90;;;;;;5017235;28;20463;-72
2021/08/15 01:09:30;;;;;;;30.07;24.93;;;15.10;99.90;;;;;;5016302;28;20484;-71
2021/08/15 01:11:59;;;;;;;30.00;25.60;;;15.10;99.90;;;;;;5018168;28;20464;-71
2021/08/15 01:14:27;;;;;;;26.07;22.80;;;15.10;99.90;;;;;;5014816;28;20563;-70
2021/08/15 01:16:55;;;;;;;27.77;25.03;;;15.10;99.90;;;;;;5051728;28;20891;-70
2021/08/15 01:19:30;;;;;;;27.77;24.83;;;15.10;99.90;;;;;;5049943;28;20483;-72
2021/08/15 01:21:58;;;;;;;29.10;25.97;;;15.30;99.90;;;;;;5050037;28;20459;-72
2021/08/15 01:24:27;;;;;;;29.30;23.83;;;15.40;99.90;;;;;;5053319;28;20455;-71
2021/08/15 01:26:56;;;;;;;26.63;23.83;;;15.60;99.90;;;;;;5054904;28;20470;-70
2021/08/15 01:29:26;;;;;;;30.90;24.80;;;15.70;99.90;;;;;;5056217;28;20548;-71
2021/08/15 01:31:53;;;;;;;26.43;24.00;;;15.80;99.90;;;;;;5052214;28;20471;-71
2021/08/15 01:34:20;;;;;;;30.53;23.67;;;15.80;99.90;;;;;;5055113;28;20810;-70
2021/08/15 01:36:47;;;;;;;29.40;24.83;;;15.70;99.90;;;;;;5054791;28;20464;-71
2021/08/15 01:39:15;;;;;;;24.60;22.50;;;15.60;99.90;;;;;;5057669;28;20487;-71
2021/08/15 01:41:41;;;;;;;26.93;24.23;;;15.60;99.90;;;;;;5061980;28;20462;-72
2021/08/15 01:44:09;;;;;;;29.73;22.43;;;15.50;99.90;;;;;;5059530;28;20886;-72
2021/08/15 01:46:38;;;;;;;29.43;23.70;;;15.40;99.90;;;;;;5060987;28;20528;-71
2021/08/15 01:49:06;;;;;;;35.73;25.90;;;15.40;99.90;;;;;;5057852;28;20933;-71
2021/08/15 01:51:34;;;;;;;28.77;25.37;;;15.20;99.90;;;;;;5055023;28;20490;-72
2021/08/15 01:54:04;;;;;;;34.17;26.63;;;15.20;99.90;;;;;;5058877;28;20549;-70
2021/08/15 01:56:33;;;;;;;35.63;25.80;;;15.20;99.90;;;;;;5063951;28;20958;-71
2021/08/15 01:59:00;;;;;;;28.13;23.40;;;15.20;99.90;;;;;;5054989;28;20475;-71
2021/08/15 02:01:28;;;;;;;31.63;25.00;;;15.20;99.90;;;;;;5067782;28;20463;-70
2021/08/15 02:03:56;;;;;;;35.83;25.83;;;15.10;99.90;;;;;;5055733;28;20455;-71
2021/08/15 02:06:23;;;;;;;31.93;27.27;;;15.00;99.90;;;;;;5058119;28;20468;-72
2021/08/15 02:08:51;;;;;;;31.17;25.13;;;15.00;99.90;;;;;;5063535;28;20477;-72
2021/08/15 02:11:19;;;;;;;29.23;25.87;;;15.00;99.90;;;;;;5058142;28;20543;-73
2021/08/15 02:13:48;;;;;;;37.50;25.77;;;14.90;99.90;;;;;;5059955;28;20454;-71
2021/08/15 02:16:15;;;;;;;31.97;25.37;;;14.90;99.90;;;;;;5066274;28;20551;-72
2021/08/15 02:18:44;;;;;;;28.10;25.20;;;14.70;99.90;;;;;;5062607;28;20487;-71
2021/08/15 02:21:12;;;;;;;27.40;24.50;;;14.60;99.90;;;;;;5060171;28;20464;-71
2021/08/15 02:23:40;;;;;;;28.70;26.13;;;14.50;99.90;;;;;;5059517;28;20459;-72
2021/08/15 02:26:07;;;;;;;33.07;26.90;;;14.40;99.90;;;;;;5056410;28;20546;-71
2021/08/15 02:28:34;;;;;;;29.83;25.07;;;14.30;99.90;;;;;;5067176;28;20464;-70
2021/08/15 02:31:01;;;;;;;36.33;24.77;;;14.20;99.90;;;;;;5065294;28;20942;-71
2021/08/15 02:33:28;;;;;;;34.33;25.43;;;14.10;99.90;;;;;;5057209;28;20821;-73
2021/08/15 02:35:57;;;;;;;31.47;26.53;;;14.20;99.90;;;;;;5059889;28;20474;-73
2021/08/15 02:38:27;;;;;;;33.20;26.43;;;14.30;99.90;;;;;;5057450;28;20475;-72
2021/08/15 02:40:54;;;;;;;30.13;26.40;;;14.40;99.90;;;;;;5060413;28;20811;-71
2021/08/15 02:43:20;;;;;;;35.23;24.03;;;14.40;99.90;;;;;;5060412;28;20471;-72
2021/08/15 02:45:48;;;;;;;33.07;26.83;;;14.30;99.90;;;;;;5064218;28;21385;-72
2021/08/15 02:48:16;;;;;;;47.07;26.40;;;14.40;99.90;;;;;;5052995;28;20816;-71
2021/08/15 02:50:43;;;;;;;32.57;25.97;;;14.40;99.90;;;;;;5057258;28;20529;-72
2021/08/15 02:53:10;;;;;;;28.50;23.93;;;14.50;99.90;;;;;;5053703;28;20714;-72
2021/08/15 02:55:39;;;;;;;34.30;26.00;;;14.50;99.90;;;;;;5054522;28;20450;-73
2021/08/15 02:58:06;;;;;;;42.23;25.10;;;14.50;99.90;;;;;;5053021;28;20483;-72
2021/08/15 03:00:34;;;;;;;29.47;25.33;;;14.50;99.90;;;;;;5056527;28;20458;-71
2021/08/15 03:03:01;;;;;;;26.07;23.80;;;14.40;99.90;;;;;;5054568;28;20505;-72
2021/08/15 03:05:28;;;;;;;32.33;25.23;;;14.40;99.90;;;;;;5063034;28;20691;-71
2021/08/15 03:07:56;;;;;;;26.57;24.10;;;14.40;99.90;;;;;;5062062;28;20467;-71
2021/08/15 03:10:22;;;;;;;28.73;24.67;;;14.20;99.90;;;;;;5053875;28;20455;-71
2021/08/15 03:12:51;;;;;;;29.87;26.27;;;14.10;99.90;;;;;;5056281;28;20459;-72
2021/08/15 03:15:19;;;;;;;28.43;25.43;;;14.00;99.90;;;;;;5058843;28;20466;-71
2021/08/15 03:17:47;;;;;;;31.87;24.33;;;13.90;99.90;;;;;;5054231;28;20945;-73
2021/08/15 03:20:15;;;;;;;28.50;24.80;;;13.80;99.90;;;;;;5056621;28;20459;-71
2021/08/15 03:22:42;;;;;;;28.77;25.90;;;13.80;99.90;;;;;;5057700;28;20459;-73
2021/08/15 03:25:11;;;;;;;26.63;24.00;;;13.70;99.90;;;;;;5059718;28;20978;-71
2021/08/15 03:27:38;;;;;;;28.67;25.77;;;13.80;99.90;;;;;;5058338;28;20466;-71
2021/08/15 03:30:07;;;;;;;36.07;26.17;;;13.80;99.90;;;;;;5051241;28;20463;-71
2021/08/15 03:32:34;;;;;;;29.10;25.97;;;13.90;99.90;;;;;;5055417;28;20456;-71
2021/08/15 03:35:03;;;;;;;26.10;23.73;;;13.90;99.90;;;;;;5059274;28;20469;-72
2021/08/15 03:37:30;;;;;;;28.70;25.80;;;13.90;99.90;;;;;;5054273;28;20465;-73
2021/08/15 03:39:57;;;;;;;31.70;26.33;;;13.80;99.90;;;;;;5056422;28;20489;-72
2021/08/15 03:42:24;;;;;;;28.63;25.93;;;13.90;99.90;;;;;;5062734;28;20460;-72
2021/08/15 03:44:51;;;;;;;26.60;24.13;;;13.90;99.90;;;;;;5051923;28;20467;-71
2021/08/15 03:47:21;;;;;;;28.83;25.80;;;13.80;99.90;;;;;;5057312;28;20938;-73
2021/08/15 03:49:48;;;;;;;27.10;24.30;;;13.70;99.90;;;;;;5053524;28;20509;-73
2021/08/15 03:52:16;;;;;;;28.40;25.70;;;13.60;99.90;;;;;;5058036;28;20476;-71
2021/08/15 03:54:44;;;;;;;30.73;25.57;;;13.50;99.90;;;;;;5053166;28;20468;-71
2021/08/15 03:57:12;;;;;;;27.13;24.20;;;13.50;99.90;;;;;;5058734;28;20470;-71
2021/08/15 03:59:38;;;;;;;30.10;24.30;;;13.40;99.90;;;;;;5055966;28;20480;-72
2021/08/15 04:02:06;;;;;;;29.77;26.57;;;13.40;99.90;;;;;;5051431;28;20838;-72
2021/08/15 04:04:35;;;;;;;28.10;24.80;;;13.40;99.90;;;;;;5049688;28;20455;-71
2021/08/15 04:07:02;;;;;;;28.00;25.33;;;13.40;99.90;;;;;;5051746;28;20459;-71
2021/08/15 04:09:31;;;;;;;28.10;25.60;;;13.40;99.90;;;;;;5055956;28;20450;-71
2021/08/15 04:11:59;;;;;;;27.70;24.83;;;13.40;99.90;;;;;;5054588;28;20472;-71
2021/08/15 04:14:26;;;;;;;29.50;26.13;;;13.40;99.90;;;;;;5054476;28;20471;-72
2021/08/15 04:16:56;;;;;;;28.40;25.57;;;13.30;99.90;;;;;;5054922;28;20479;-71
2021/08/15 04:19:23;;;;;;;28.27;25.53;;;13.30;99.90;;;;;;5055629;28;20526;-71
2021/08/15 04:21:52;;;;;;;30.67;26.73;;;13.30;99.90;;;;;;5060760;28;20460;-72
2021/08/15 04:24:20;;;;;;;28.93;25.07;;;13.30;99.90;;;;;;5054620;28;20463;-71
2021/08/15 04:26:47;;;;;;;28.33;25.40;;;13.30;99.90;;;;;;5054481;28;20463;-72
2021/08/15 04:29:14;;;;;;;27.17;24.77;;;13.40;99.90;;;;;;5056117;28;20448;-72
2021/08/15 04:31:40;;;;;;;25.60;23.30;;;13.40;99.90;;;;;;5054040;28;20460;-72
2021/08/15 04:34:07;;;;;;;26.53;23.80;;;13.40;99.90;;;;;;5052581;28;20506;-72
2021/08/15 04:36:34;;;;;;;27.83;24.93;;;13.40;99.90;;;;;;5053136;28;20471;-72
2021/08/15 04:39:04;;;;;;;28.07;25.03;;;13.30;99.90;;;;;;5056004;28;20497;-72
2021/08/15 04:41:31;;;;;;;27.83;25.17;;;13.30;99.90;;;;;;5054389;28;20861;-71
2021/08/15 04:43:59;;;;;;;27.63;24.97;;;13.30;99.90;;;;;;5056626;28;20456;-72
2021/08/15 04:46:26;;;;;;;32.67;26.20;;;13.30;99.90;;;;;;5056698;28;20464;-73
2021/08/15 04:48:52;;;;;;;30.13;25.87;;;13.40;99.90;;;;;;5057380;28;20459;-72
2021/08/15 04:51:21;;;;;;;27.40;24.77;;;13.40;99.90;;;;;;5049672;28;20456;-71
2021/08/15 04:53:49;;;;;;;27.97;24.80;;;13.50;99.90;;;;;;5050547;28;20813;-73
2021/08/15 04:56:18;;;;;;;32.67;24.70;;;13.60;99.90;;;;;;5055017;28;20490;-71
2021/08/15 04:58:45;;;;;;;26.57;24.00;;;13.70;99.90;;;;;;5056930;28;20481;-71
2021/08/15 05:01:13;;;;;;;26.93;24.53;;;13.80;99.90;;;;;;5054907;28;20569;-72
2021/08/15 05:03:41;;;;;;;28.07;25.23;;;13.90;99.90;;;;;;5053585;28;20557;-71
2021/08/15 05:06:08;;;;;;;26.90;23.93;;;14.00;99.90;;;;;;5052939;28;20501;-71
2021/08/15 05:08:36;;;;;;;26.13;23.77;;;14.10;99.90;;;;;;5054152;28;20464;-72
2021/08/15 05:11:04;;;;;;;25.30;22.80;;;14.20;99.90;;;;;;5049189;28;20459;-71
2021/08/15 05:13:33;;;;;;;29.70;23.03;;;14.30;99.90;;;;;;5052828;28;20455;-73
2021/08/15 05:16:00;;;;;;;25.77;23.10;;;14.40;99.90;;;;;;5054687;28;20479;-71
2021/08/15 05:18:27;;;;;;;26.23;23.63;;;14.50;99.90;;;;;;5059753;28;20486;-72
2021/08/15 05:20:54;;;;;;;25.40;22.50;;;14.70;99.90;;;;;;5051976;28;20460;-72
2021/08/15 05:23:21;;;;;;;30.97;24.53;;;14.90;99.90;;;;;;5054147;28;20468;-72
2021/08/15 05:25:48;;;;;;;25.93;23.33;;;15.00;99.90;;;;;;5056653;28;20474;-72
2021/08/15 05:28:15;;;;;;;25.33;22.80;;;15.10;99.90;;;;;;5053029;28;20459;-72
2021/08/15 05:30:44;;;;;;;28.30;24.07;;;15.20;99.90;;;;;;5054816;28;20590;-72
2021/08/15 05:33:11;;;;;;;39.87;23.00;;;15.30;99.90;;;;;;5053707;28;20542;-72
2021/08/15 05:35:38;;;;;;;34.63;22.20;;;15.30;99.90;;;;;;5055908;28;20816;-71
2021/08/15 05:38:06;;;;;;;25.53;22.30;;;15.40;99.90;;;;;;5053526;28;20463;-72
2021/08/15 05:40:36;;;;;;;37.77;23.87;;;15.50;99.90;;;;;;5056208;28;20497;-72
2021/08/15 05:43:03;;;;;;;28.93;22.70;;;15.60;99.90;;;;;;5047270;28;20460;-72
2021/08/15 05:45:30;;;;;;;32.50;21.90;;;15.80;99.90;;;;;;5056286;28;20460;-72
2021/08/15 05:47:58;;;;;;;27.40;22.27;;;15.90;99.90;;;;;;5053158;28;20494;-72
2021/08/15 05:50:25;;;;;;;25.30;21.53;;;16.10;99.90;;;;;;5056447;28;20460;-72
2021/08/15 05:52:52;;;;;;;35.47;24.07;;;16.10;99.90;;;;;;5048621;28;20828;-72
2021/08/15 05:55:20;;;;;;;38.13;23.57;;;16.30;99.90;;;;;;5052784;28;20451;-70
2021/08/15 05:57:46;;;;;;;29.13;23.07;;;16.30;99.90;;;;;;5052133;28;20460;-71
2021/08/15 06:00:15;;;;;;;25.63;22.60;;;16.40;99.90;;;;;;5051613;28;20505;-72
2021/08/15 06:02:45;;;;;;;33.73;22.30;;;16.50;99.90;;;;;;5058022;28;20455;-72
2021/08/15 06:05:15;;;;;;;27.33;23.87;;;16.60;99.90;;;;;;5058827;28;20486;-71
2021/08/15 06:07:42;;;;;;;26.50;21.50;;;16.70;99.90;;;;;;5056460;28;20486;-72
2021/08/15 06:10:10;;;;;;;25.63;22.70;;;16.80;99.90;;;;;;5054690;28;20463;-73
2021/08/15 06:12:38;;;;;;;25.70;22.77;;;16.90;99.90;;;;;;5056913;28;20451;-72
2021/08/15 06:15:08;;;;;;;25.30;20.60;;;17.00;99.90;;;;;;5050028;28;20455;-72
2021/08/15 06:17:35;;;;;;;22.57;20.20;;;17.10;99.90;;;;;;5051387;28;20451;-72
2021/08/15 06:20:02;;;;;;;24.10;19.93;;;17.30;99.90;;;;;;5051305;28;20491;-71
2021/08/15 06:22:30;;;;;;;21.07;18.53;;;17.60;99.90;;;;;;5051341;28;20823;-71
2021/08/15 06:24:58;;;;;;;27.67;19.30;;;17.70;99.90;;;;;;5053683;28;20455;-71
2021/08/15 06:27:26;;;;;;;22.97;18.60;;;17.80;99.90;;;;;;5059542;28;20458;-71
2021/08/15 06:29:52;;;;;;;24.33;18.17;;;18.00;99.90;;;;;;5058453;28;20494;-71
2021/08/15 06:32:19;;;;;;;20.90;18.90;;;18.10;99.90;;;;;;5063522;28;20451;-73
2021/08/15 06:34:46;;;;;;;24.30;19.07;;;18.20;99.90;;;;;;5059437;28;20466;-72
2021/08/15 06:37:13;;;;;;;20.80;17.93;;;18.30;99.90;;;;;;5053534;28;20461;-72
2021/08/15 06:39:42;;;;;;;25.83;18.60;;;18.40;99.90;;;;;;5056149;28;20814;-70
2021/08/15 06:42:09;;;;;;;21.07;19.13;;;18.50;99.90;;;;;;5057833;28;20471;-71
2021/08/15 06:44:37;;;;;;;22.70;19.10;;;18.60;99.90;;;;;;5059337;28;20458;-71
2021/08/15 06:47:05;;;;;;;21.07;17.67;;;18.80;99.90;;;;;;5059939;28;20455;-71
2021/08/15 06:49:32;;;;;;;22.77;19.50;;;18.90;99.90;;;;;;5056283;28;20458;-73
2021/08/15 06:52:00;;;;;;;28.03;19.13;;;19.10;99.90;;;;;;5050012;28;20471;-73
2021/08/15 06:54:28;;;;;;;19.33;17.30;;;19.30;99.90;;;;;;5056521;28;20467;-71
2021/08/15 06:56:58;;;;;;;22.17;17.57;;;19.50;99.90;;;;;;5060327;28;20535;-71
2021/08/15 06:59:25;;;;;;;17.77;16.13;;;19.60;99.90;;;;;;5054806;28;20483;-71
2021/08/15 07:01:52;;;;;;;18.63;16.77;;;19.70;99.90;;;;;;5057093;28;20496;-71
2021/08/15 07:04:21;;;;;;;21.67;16.33;;;19.90;99.90;;;;;;5055922;28;20459;-73
2021/08/15 07:06:47;;;;;;;19.60;15.60;;;20.10;99.90;;;;;;5054259;28;20470;-73
2021/08/15 07:09:15;;;;;;;19.73;17.43;;;20.40;99.90;;;;;;5054809;28;20460;-73
2021/08/15 07:11:42;;;;;;;19.10;16.83;;;20.50;99.90;;;;;;5057820;28;20460;-71
2021/08/15 07:14:10;;;;;;;18.37;16.73;;;20.40;99.90;;;;;;5053596;28;20466;-73
2021/08/15 07:16:37;;;;;;;17.83;16.10;;;20.50;99.90;;;;;;5062614;28;20543;-72
2021/08/15 07:19:06;;;;;;;17.60;15.90;;;20.60;99.90;;;;;;5060061;28;20463;-73
2021/08/15 07:21:33;;;;;;;18.33;16.13;;;20.70;99.90;;;;;;5056152;28;20471;-72
2021/08/15 07:24:01;;;;;;;28.63;16.67;;;20.70;99.90;;;;;;5059021;28;20957;-72
2021/08/15 07:26:28;;;;;;;22.13;15.10;;;20.90;99.90;;;;;;5054837;28;21043;-71
2021/08/15 07:28:55;;;;;;;18.20;16.40;;;21.00;99.90;;;;;;5060955;28;20954;-69
2021/08/15 07:31:24;;;;;;;16.13;14.70;;;21.10;99.90;;;;;;5057341;28;20452;-69
2021/08/15 07:33:52;;;;;;;16.23;14.83;;;21.30;99.90;;;;;;5055102;28;20493;-71
2021/08/15 07:36:19;;;;;;;16.10;14.90;;;21.40;99.90;;;;;;5056011;28;20955;-70
2021/08/15 07:38:47;;;;;;;15.07;13.63;;;21.60;99.90;;;;;;5057550;28;20487;-69
2021/08/15 07:41:16;;;;;;;15.23;14.23;;;21.80;99.90;;;;;;5058530;28;20569;-69
2021/08/15 07:43:43;;;;;;;13.47;12.40;;;21.90;99.90;;;;;;5059069;28;20494;-70
2021/08/15 07:46:13;;;;;;;14.63;13.60;;;21.70;99.90;;;;;;5054696;28;20460;-69
2021/08/15 07:48:43;;;;;;;14.80;13.53;;;21.80;99.90;;;;;;5055845;28;20582;-69
2021/08/15 07:51:10;;;;;;;14.20;13.00;;;22.00;99.90;;;;;;5049674;28;20464;-69
2021/08/15 07:53:38;;;;;;;13.93;12.70;;;22.20;99.90;;;;;;5056725;28;20490;-69
2021/08/15 07:56:06;;;;;;;13.10;12.00;;;22.30;99.90;;;;;;5058548;28;20455;-69
2021/08/15 07:58:36;;;;;;;12.87;12.07;;;22.40;99.90;;;;;;5054098;28;20767;-69
2021/08/15 08:01:04;;;;;;;13.03;12.03;;;22.60;99.90;;;;;;5052136;28;20490;-70
2021/08/15 08:03:31;;;;;;;23.70;13.27;;;22.70;99.90;;;;;;5051523;28;20466;-69
2021/08/15 08:05:59;;;;;;;13.30;12.07;;;22.70;99.90;;;;;;5058044;28;20459;-69
2021/08/15 08:08:27;;;;;;;13.37;12.37;;;23.10;99.90;;;;;;5058338;28;20458;-71
2021/08/15 08:10:55;;;;;;;15.23;12.10;;;23.30;99.90;;;;;;5050804;28;20969;-69
2021/08/15 08:13:23;;;;;;;12.43;11.73;;;23.60;99.90;;;;;;5053059;28;20481;-69
2021/08/15 08:15:50;;;;;;;13.60;12.47;;;24.20;99.90;;;;;;5049331;28;20479;-69
2021/08/15 08:18:19;;;;;;;12.37;11.57;;;24.70;99.90;;;;;;5057088;28;21087;-70
2021/08/15 08:20:46;;;;;;;13.20;12.10;;;25.10;99.90;;;;;;5054279;28;20587;-69
2021/08/15 08:23:17;;;;;;;13.23;11.63;;;25.30;99.90;;;;;;5059618;28;20467;-69
2021/08/15 08:25:46;;;;;;;24.33;14.07;;;25.50;99.90;;;;;;5055962;28;20582;-72
2021/08/15 08:28:15;;;;;;;14.47;13.43;;;25.90;99.90;;;;;;5056117;28;20826;-69
2021/08/15 08:30:42;;;;;;;14.60;13.50;;;25.90;99.90;;;;;;5047867;28;20463;-70
2021/08/15 08:33:10;;;;;;;14.97;13.77;;;26.10;99.90;;;;;;5049592;28;20869;-71
2021/08/15 08:35:37;;;;;;;16.43;14.70;;;26.40;99.90;;;;;;5052307;28;20470;-72
2021/08/15 08:38:05;;;;;;;14.80;13.90;;;26.10;99.90;;;;;;5052480;28;20447;-71
2021/08/15 08:40:34;;;;;;;15.17;13.97;;;26.40;99.90;;;;;;5055496;28;20565;-71
2021/08/15 08:43:02;;;;;;;15.00;13.90;;;26.80;99.90;;;;;;5056956;28;21115;-74
2021/08/15 08:45:32;;;;;;;15.33;14.23;;;27.00;99.90;;;;;;5059093;28;20571;-71
2021/08/15 08:47:59;;;;;;;16.43;15.23;;;26.60;99.90;;;;;;5056037;28;20459;-70
2021/08/15 08:50:27;;;;;;;16.93;15.50;;;26.50;99.90;;;;;;5058326;28;20455;-74
2021/08/15 08:52:55;;;;;;;16.20;14.97;;;26.50;99.90;;;;;;5049099;28;20483;-72
2021/08/15 08:55:23;;;;;;;15.33;14.33;;;26.80;99.90;;;;;;5057499;28;20455;-71
2021/08/15 08:57:52;;;;;;;16.57;15.37;;;26.80;99.90;;;;;;5057160;28;20448;-74
2021/08/15 09:00:19;;;;;;;15.43;14.47;;;27.10;99.90;;;;;;5057768;28;20529;-72
2021/08/15 09:02:47;;;;;;;14.67;13.53;;;27.30;99.90;;;;;;5055725;28;20455;-71
2021/08/15 09:05:15;;;;;;;13.93;12.83;;;27.20;99.90;;;;;;5055913;28;20451;-74
2021/08/15 09:07:43;;;;;;;14.27;13.10;;;27.10;99.90;;;;;;5052986;28;20456;-71
2021/08/15 09:10:13;;;;;;;14.47;13.07;;;27.00;99.90;;;;;;5057368;28;20524;-71
2021/08/15 09:12:43;;;;;;;14.87;13.67;;;27.60;99.90;;;;;;5057224;28;20923;-69
2021/08/15 09:15:16;;;;;;;14.10;13.00;;;27.90;99.90;;;;;;5055487;28;20918;-71
2021/08/15 09:17:44;;;;;;;14.53;13.63;;;28.20;99.90;;;;;;5050574;28;20547;-69
2021/08/15 09:20:14;;;;;;;14.37;13.27;;;28.70;99.90;;;;;;5058449;28;20479;-69
2021/08/15 09:22:42;;;;;;;15.47;14.03;;;28.60;99.90;;;;;;5055056;28;21013;-71
2021/08/15 09:25:11;;;;;;;14.47;13.47;;;29.10;99.90;;;;;;5053698;28;20486;-70
2021/08/15 09:27:43;;;;;;;16.23;14.93;;;29.30;99.90;;;;;;5040615;28;20455;-72
2021/08/15 09:30:20;;;;;;;15.23;14.23;;;29.70;99.90;;;;;;5049256;28;20468;-71
2021/08/15 09:32:51;;;;;;;15.80;14.50;;;29.40;99.90;;;;;;5049828;28;20503;-72
2021/08/15 09:35:20;;;;;;;16.40;15.00;;;28.80;99.90;;;;;;5048706;28;20975;-69
2021/08/15 09:37:47;;;;;;;16.20;15.00;;;29.50;99.90;;;;;;5050128;28;20463;-70
2021/08/15 09:40:26;;;;;;;15.80;14.80;;;29.70;99.90;;;;;;5047898;28;20488;-69
2021/08/15 09:42:54;;;;;;;16.43;15.07;;;29.90;99.90;;;;;;5044977;28;20834;-69
2021/08/15 09:45:41;;;;;;;16.47;15.37;;;29.90;99.90;;;;;;5049829;28;20468;-69
2021/08/15 09:48:27;;;;;;;15.50;14.50;;;29.30;99.90;;;;;;5045927;28;20460;-69
2021/08/15 09:51:06;;;;;;;17.13;15.97;;;28.80;99.90;;;;;;5051551;28;20468;-68
2021/08/15 09:53:34;;;;;;;15.03;13.90;;;28.70;99.90;;;;;;5048697;28;20497;-70
2021/08/15 09:56:01;;;;;;;13.87;12.97;;;28.60;99.90;;;;;;5051173;28;20471;-69
2021/08/15 09:58:29;;;;;;;14.90;13.53;;;28.80;99.90;;;;;;5043841;28;20456;-68
2021/08/15 10:01:00;;;;;;;14.40;13.17;;;28.90;99.90;;;;;;5053230;28;20947;-72
2021/08/15 10:03:28;;;;;;;15.70;14.57;;;28.90;99.90;;;;;;5056410;28;20467;-69
2021/08/15 10:05:57;;;;;;;15.60;14.30;;;29.10;99.90;;;;;;5048512;28;20470;-69
2021/08/15 10:08:24;;;;;;;15.43;14.17;;;29.20;99.90;;;;;;5054343;28;20463;-69
2021/08/15 10:10:52;;;;;;;15.50;14.37;;;29.20;99.90;;;;;;5048938;28;20467;-68
2021/08/15 10:13:19;;;;;;;14.90;13.57;;;29.40;99.90;;;;;;5047786;28;20475;-69
2021/08/15 10:15:55;;;;;;;15.63;14.20;;;29.90;99.90;;;;;;5053899;28;20487;-70
2021/08/15 10:18:26;;;;;;;16.87;15.20;;;30.20;99.90;;;;;;5050506;28;20853;-69
2021/08/15 10:21:10;;;;;;;15.77;14.77;;;30.50;99.90;;;;;;5054243;28;20491;-69
2021/08/15 10:23:42;;;;;;;15.30;14.40;;;30.50;99.90;;;;;;5047854;28;20459;-69
2021/08/15 10:26:41;;;;;;;16.37;14.97;;;30.90;99.90;;;;;;5046545;28;20483;-69
2021/08/15 10:29:34;;;;;;;15.90;14.90;;;31.00;99.90;;;;;;5053598;28;20451;-69
2021/08/15 10:32:11;;;;;;;15.43;14.53;;;31.10;99.90;;;;;;5048953;28;20464;-70
2021/08/15 10:35:16;;;;;;;16.27;14.93;;;31.70;99.90;;;;;;5047089;28;20451;-69
2021/08/15 10:37:45;;;;;;;16.23;14.93;;;31.80;99.90;;;;;;5054230;28;20451;-69
2021/08/15 10:40:57;;;;;;;16.33;15.33;;;30.70;99.90;;;;;;5047023;28;20470;-72
2021/08/15 10:44:07;;;;;;;14.83;13.77;;;30.30;99.90;;;;;;5050721;28;20478;-69
2021/08/15 10:46:35;;;;;;;14.50;13.50;;;29.90;99.90;;;;;;5050271;28;21076;-72
2021/08/15 10:49:05;;;;;;;15.97;14.63;;;30.50;99.90;;;;;;5053835;28;20459;-72
2021/08/15 10:51:44;;;;;;;16.70;15.40;;;31.20;99.90;;;;;;5051678;28;20954;-69
2021/08/15 10:54:44;;;;;;;15.67;14.43;;;31.20;99.90;;;;;;5051745;28;20478;-69
2021/08/15 10:57:33;;;;;;;14.77;13.73;;;30.40;99.90;;;;;;5053213;28;20462;-69
2021/08/15 10:59:59;;;;;;;16.50;15.20;;;31.20;99.90;;;;;;5054831;28;20466;-68
2021/08/15 11:02:33;;;;;;;16.67;15.37;;;31.70;98.80;;;;;;5050824;28;20463;-69
2021/08/15 11:05:01;;;;;;;16.17;14.37;;;31.40;99.30;;;;;;5054139;28;20558;-69
2021/08/15 11:07:38;;;;;;;15.57;14.40;;;31.30;99.90;;;;;;5049367;28;20455;-71
2021/08/15 11:10:07;;;;;;;16.33;15.00;;;32.00;98.70;;;;;;5050179;28;20546;-70
2021/08/15 11:12:36;;;;;;;16.93;15.40;;;32.60;97.60;;;;;;5053359;28;20451;-69
2021/08/15 11:15:09;;;;;;;16.80;15.13;;;31.70;97.30;;;;;;5049448;28;20452;-72
2021/08/15 11:17:37;;;;;;;16.80;15.70;;;31.00;97.40;;;;;;5049102;28;20475;-70
2021/08/15 11:20:49;;;;;;;15.20;14.30;;;30.80;97.80;;;;;;5049489;28;20456;-69
2021/08/15 11:23:18;;;;;;;16.13;14.90;;;31.20;98.70;;;;;;5036954;28;20448;-69
2021/08/15 11:25:46;;;;;;;15.50;14.50;;;31.20;97.10;;;;;;5048889;28;20462;-69
2021/08/15 11:28:15;;;;;;;18.97;15.40;;;31.40;98.20;;;;;;5048125;28;20468;-70
2021/08/15 11:30:42;;;;;;;16.07;15.17;;;31.70;97.10;;;;;;5054372;28;20499;-70
2021/08/15 11:33:11;;;;;;;16.07;15.07;;;32.00;96.60;;;;;;5050027;28;21094;-70
2021/08/15 11:35:43;;;;;;;16.63;15.20;;;32.20;95.60;;;;;;5049235;28;20490;-73
2021/08/15 11:38:12;;;;;;;15.80;14.80;;;32.30;95.90;;;;;;5049758;28;20478;-69
2021/08/15 11:40:46;;;;;;;15.47;14.27;;;32.00;95.50;;;;;;5044175;28;20504;-72
2021/08/15 11:43:18;;;;;;;14.83;13.83;;;31.80;94.00;;;;;;5051229;28;20525;-73
2021/08/15 11:45:54;;;;;;;15.40;14.10;;;31.70;94.90;;;;;;5053142;28;20888;-69
2021/08/15 11:48:22;;;;;;;15.40;14.50;;;31.70;95.90;;;;;;5046822;28;20752;-69
2021/08/15 11:50:51;;;;;;;16.57;14.73;;;31.70;94.90;;;;;;5048637;28;20459;-69
2021/08/15 11:53:19;;;;;;;15.00;14.00;;;32.00;94.30;;;;;;5048015;28;20476;-69
2021/08/15 11:55:46;;;;;;;15.27;14.23;;;32.50;93.80;;;;;;5051598;28;20561;-69
2021/08/15 11:58:15;;;;;;;14.80;14.00;;;33.10;94.40;;;;;;5051957;28;20543;-69
2021/08/15 12:00:42;;;;;;;16.27;14.90;;;33.30;93.00;;;;;;5046716;28;21169;-69
2021/08/15 12:03:11;;;;;;;16.53;14.90;;;32.90;93.70;;;;;;5047767;28;20461;-69
2021/08/15 12:05:43;;;;;;;16.53;15.13;;;32.90;93.60;;;;;;5053032;28;20557;-69
2021/08/15 12:08:11;;;;;;;16.43;15.40;;;32.80;93.70;;;;;;5051188;28;20508;-69
2021/08/15 12:10:41;;;;;;;14.70;13.60;;;32.30;92.40;;;;;;5050001;28;20846;-68
2021/08/15 12:13:09;;;;;;;15.17;14.07;;;32.00;93.60;;;;;;5048728;28;20761;-69
2021/08/15 12:15:39;;;;;;;15.60;14.40;;;31.60;94.10;;;;;;5057987;28;20482;-69
2021/08/15 12:18:07;;;;;;;15.37;14.23;;;32.10;93.40;;;;;;5050651;28;20455;-69
2021/08/15 12:20:43;;;;;;;16.37;14.97;;;32.50;93.40;;;;;;5049425;28;20456;-69
2021/08/15 12:23:11;;;;;;;15.17;13.90;;;32.70;93.80;;;;;;5046006;28;20443;-69
2021/08/15 12:25:38;;;;;;;15.33;14.33;;;33.10;93.10;;;;;;5046366;28;20452;-69
2021/08/15 12:28:12;;;;;;;15.00;14.10;;;33.30;92.40;;;;;;5047943;28;20460;-69
2021/08/15 12:30:41;;;;;;;15.07;14.07;;;33.20;92.90;;;;;;5046316;28;20463;-69
2021/08/15 12:33:28;;;;;;;14.67;13.57;;;33.40;90.60;;;;;;5045513;28;22204;-71
2021/08/15 12:36:22;;;;;;;15.33;14.30;;;33.40;91.30;;;;;;5049787;28;20908;-69
2021/08/15 12:38:50;;;;;;;14.97;13.77;;;33.70;90.40;;;;;;5052004;28;20452;-69